sensor_id;sensor_type;location;lat;lon;timestamp;P1;durP1;ratioP1;P2;durP2;ratioP2
44228;SDS011;29904;51.058;5.378;2022-07-29T00:00:51;4.22;;;2.05;;
44228;SDS011;29904;51.058;5.378;2022-07-29T00:03:19;6.50;;;2.13;;
44228;SDS011;29904;51.058;5.378;2022-07-29T00:05:45;4.37;;;2.00;;
44228;SDS011;29904;51.058;5.378;2022-07-29T00:08:10;5.53;;;2.13;;
44228;SDS011;29904;51.058;5.378;2022-07-29T00:10:37;4.82;;;2.00;;
44228;SDS011;29904;51.058;5.378;2022-07-29T00:13:03;5.68;;;2.22;;
44228;SDS011;29904;51.058;5.378;2022-07-29T00:15:29;4.20;;;2.00;;
44228;SDS011;29904;51.058;5.378;2022-07-29T00:17:54;4.57;;;2.20;;
44228;SDS011;29904;51.058;5.378;2022-07-29T00:20:20;4.30;;;2.00;;
44228;SDS011;29904;51.058;5.378;2022-07-29T00:22:46;5.35;;;2.20;;
44228;SDS011;29904;51.058;5.378;2022-07-29T00:25:12;4.97;;;2.22;;
44228;SDS011;29904;51.058;5.378;2022-07-29T00:27:38;4.80;;;2.20;;
44228;SDS011;29904;51.058;5.378;2022-07-29T00:30:04;4.28;;;2.20;;
44228;SDS011;29904;51.058;5.378;2022-07-29T00:32:30;4.60;;;1.95;;
44228;SDS011;29904;51.058;5.378;2022-07-29T00:34:58;3.80;;;2.20;;
44228;SDS011;29904;51.058;5.378;2022-07-29T00:37:43;5.45;;;2.00;;
44228;SDS011;29904;51.058;5.378;2022-07-29T00:40:11;5.55;;;2.00;;
44228;SDS011;29904;51.058;5.378;2022-07-29T00:42:47;2.53;;;2.08;;
44228;SDS011;29904;51.058;5.378;2022-07-29T00:45:16;5.35;;;2.15;;
44228;SDS011;29904;51.058;5.378;2022-07-29T00:47:42;3.58;;;2.00;;
44228;SDS011;29904;51.058;5.378;2022-07-29T00:50:08;4.40;;;2.10;;
44228;SDS011;29904;51.058;5.378;2022-07-29T00:52:37;6.03;;;2.03;;
44228;SDS011;29904;51.058;5.378;2022-07-29T00:55:05;3.97;;;1.88;;
44228;SDS011;29904;51.058;5.378;2022-07-29T00:57:33;3.53;;;1.83;;
44228;SDS011;29904;51.058;5.378;2022-07-29T00:59:59;5.68;;;1.90;;
44228;SDS011;29904;51.058;5.378;2022-07-29T01:02:25;3.50;;;1.85;;
44228;SDS011;29904;51.058;5.378;2022-07-29T01:04:51;3.78;;;1.80;;
44228;SDS011;29904;51.058;5.378;2022-07-29T01:07:18;3.42;;;2.15;;
44228;SDS011;29904;51.058;5.378;2022-07-29T01:09:44;5.20;;;2.20;;
44228;SDS011;29904;51.058;5.378;2022-07-29T01:12:11;3.67;;;1.95;;
44228;SDS011;29904;51.058;5.378;2022-07-29T01:14:40;4.18;;;2.08;;
44228;SDS011;29904;51.058;5.378;2022-07-29T01:17:12;5.47;;;2.17;;
44228;SDS011;29904;51.058;5.378;2022-07-29T01:20:00;6.30;;;2.20;;
44228;SDS011;29904;51.058;5.378;2022-07-29T01:22:35;4.10;;;2.10;;
44228;SDS011;29904;51.058;5.378;2022-07-29T01:28:01;3.38;;;1.90;;
44228;SDS011;29904;51.058;5.378;2022-07-29T01:30:40;5.30;;;2.53;;
44228;SDS011;29904;51.058;5.378;2022-07-29T01:33:10;5.13;;;2.28;;
44228;SDS011;29904;51.058;5.378;2022-07-29T01:36:01;5.00;;;2.60;;
44228;SDS011;29904;51.058;5.378;2022-07-29T01:38:29;5.10;;;2.53;;
44228;SDS011;29904;51.058;5.378;2022-07-29T01:41:01;5.43;;;2.53;;
44228;SDS011;29904;51.058;5.378;2022-07-29T01:43:32;4.40;;;2.53;;
44228;SDS011;29904;51.058;5.378;2022-07-29T01:46:20;3.83;;;2.63;;
44228;SDS011;29904;51.058;5.378;2022-07-29T01:48:53;5.47;;;2.60;;
44228;SDS011;29904;51.058;5.378;2022-07-29T01:52:08;4.30;;;2.60;;
44228;SDS011;29904;51.058;5.378;2022-07-29T01:54:32;5.32;;;2.40;;
44228;SDS011;29904;51.058;5.378;2022-07-29T01:57:07;4.80;;;2.70;;
44228;SDS011;29904;51.058;5.378;2022-07-29T01:59:37;3.92;;;2.55;;
44228;SDS011;29904;51.058;5.378;2022-07-29T02:02:06;4.53;;;2.42;;
44228;SDS011;29904;51.058;5.378;2022-07-29T02:04:33;5.00;;;2.70;;
44228;SDS011;29904;51.058;5.378;2022-07-29T02:07:02;4.88;;;2.60;;
44228;SDS011;29904;51.058;5.378;2022-07-29T02:09:30;4.00;;;2.35;;
44228;SDS011;29904;51.058;5.378;2022-07-29T02:11:58;3.97;;;2.40;;
44228;SDS011;29904;51.058;5.378;2022-07-29T02:14:26;4.65;;;2.35;;
44228;SDS011;29904;51.058;5.378;2022-07-29T02:16:58;4.18;;;2.17;;
44228;SDS011;29904;51.058;5.378;2022-07-29T02:19:26;5.38;;;2.75;;
44228;SDS011;29904;51.058;5.378;2022-07-29T02:21:55;4.35;;;2.50;;
44228;SDS011;29904;51.058;5.378;2022-07-29T02:24:23;5.78;;;2.60;;
44228;SDS011;29904;51.058;5.378;2022-07-29T02:26:50;4.43;;;2.40;;
44228;SDS011;29904;51.058;5.378;2022-07-29T02:29:20;4.47;;;2.58;;
44228;SDS011;29904;51.058;5.378;2022-07-29T02:31:48;5.95;;;2.78;;
44228;SDS011;29904;51.058;5.378;2022-07-29T02:34:15;6.20;;;3.00;;
44228;SDS011;29904;51.058;5.378;2022-07-29T02:36:44;6.53;;;3.00;;
44228;SDS011;29904;51.058;5.378;2022-07-29T02:39:10;8.07;;;3.13;;
44228;SDS011;29904;51.058;5.378;2022-07-29T02:41:40;4.32;;;3.08;;
44228;SDS011;29904;51.058;5.378;2022-07-29T02:44:15;5.13;;;3.03;;
44228;SDS011;29904;51.058;5.378;2022-07-29T02:46:45;6.47;;;2.78;;
44228;SDS011;29904;51.058;5.378;2022-07-29T02:51:58;4.05;;;2.60;;
44228;SDS011;29904;51.058;5.378;2022-07-29T02:54:33;6.18;;;2.78;;
44228;SDS011;29904;51.058;5.378;2022-07-29T02:57:54;4.65;;;2.58;;
44228;SDS011;29904;51.058;5.378;2022-07-29T02:59:58;4.97;;;2.60;;
44228;SDS011;29904;51.058;5.378;2022-07-29T03:02:29;5.00;;;2.50;;
44228;SDS011;29904;51.058;5.378;2022-07-29T03:05:01;3.95;;;2.50;;
44228;SDS011;29904;51.058;5.378;2022-07-29T03:07:28;4.20;;;2.60;;
44228;SDS011;29904;51.058;5.378;2022-07-29T03:09:58;4.05;;;2.72;;
44228;SDS011;29904;51.058;5.378;2022-07-29T03:12:27;4.35;;;2.45;;
44228;SDS011;29904;51.058;5.378;2022-07-29T03:14:54;3.20;;;2.25;;
44228;SDS011;29904;51.058;5.378;2022-07-29T03:17:21;3.95;;;2.10;;
44228;SDS011;29904;51.058;5.378;2022-07-29T03:19:47;4.55;;;2.38;;
44228;SDS011;29904;51.058;5.378;2022-07-29T03:22:13;7.35;;;2.40;;
44228;SDS011;29904;51.058;5.378;2022-07-29T03:24:39;5.97;;;2.70;;
44228;SDS011;29904;51.058;5.378;2022-07-29T03:27:07;4.63;;;2.70;;
44228;SDS011;29904;51.058;5.378;2022-07-29T03:29:33;6.18;;;2.78;;
44228;SDS011;29904;51.058;5.378;2022-07-29T03:31:58;4.30;;;2.60;;
44228;SDS011;29904;51.058;5.378;2022-07-29T03:34:24;3.60;;;2.70;;
44228;SDS011;29904;51.058;5.378;2022-07-29T03:36:50;5.43;;;2.80;;
44228;SDS011;29904;51.058;5.378;2022-07-29T03:39:20;5.67;;;2.63;;
44228;SDS011;29904;51.058;5.378;2022-07-29T03:41:50;4.28;;;2.83;;
44228;SDS011;29904;51.058;5.378;2022-07-29T03:44:20;4.32;;;2.80;;
44228;SDS011;29904;51.058;5.378;2022-07-29T03:46:49;4.15;;;2.75;;
44228;SDS011;29904;51.058;5.378;2022-07-29T03:49:16;4.80;;;2.73;;
44228;SDS011;29904;51.058;5.378;2022-07-29T03:51:42;4.80;;;3.20;;
44228;SDS011;29904;51.058;5.378;2022-07-29T03:54:11;3.70;;;2.90;;
44228;SDS011;29904;51.058;5.378;2022-07-29T03:56:38;4.47;;;3.05;;
44228;SDS011;29904;51.058;5.378;2022-07-29T03:59:06;5.68;;;3.10;;
44228;SDS011;29904;51.058;5.378;2022-07-29T04:01:35;4.88;;;3.00;;
44228;SDS011;29904;51.058;5.378;2022-07-29T04:04:02;5.80;;;3.40;;
44228;SDS011;29904;51.058;5.378;2022-07-29T04:06:36;5.70;;;3.15;;
44228;SDS011;29904;51.058;5.378;2022-07-29T04:09:11;4.10;;;3.10;;
44228;SDS011;29904;51.058;5.378;2022-07-29T04:11:38;4.63;;;3.08;;
44228;SDS011;29904;51.058;5.378;2022-07-29T04:14:05;5.83;;;3.47;;
44228;SDS011;29904;51.058;5.378;2022-07-29T04:16:31;4.93;;;3.10;;
44228;SDS011;29904;51.058;5.378;2022-07-29T04:18:57;6.47;;;3.75;;
44228;SDS011;29904;51.058;5.378;2022-07-29T04:21:23;5.25;;;3.30;;
44228;SDS011;29904;51.058;5.378;2022-07-29T04:23:49;4.60;;;3.17;;
44228;SDS011;29904;51.058;5.378;2022-07-29T04:26:16;5.57;;;3.50;;
44228;SDS011;29904;51.058;5.378;2022-07-29T04:28:42;6.70;;;3.72;;
44228;SDS011;29904;51.058;5.378;2022-07-29T04:31:08;4.90;;;3.28;;
44228;SDS011;29904;51.058;5.378;2022-07-29T04:33:34;5.87;;;3.60;;
44228;SDS011;29904;51.058;5.378;2022-07-29T04:36:02;5.40;;;3.47;;
44228;SDS011;29904;51.058;5.378;2022-07-29T04:38:28;5.68;;;3.67;;
44228;SDS011;29904;51.058;5.378;2022-07-29T04:40:54;4.10;;;3.40;;
44228;SDS011;29904;51.058;5.378;2022-07-29T04:43:20;4.72;;;3.30;;
44228;SDS011;29904;51.058;5.378;2022-07-29T04:45:45;5.03;;;3.10;;
44228;SDS011;29904;51.058;5.378;2022-07-29T04:48:13;5.60;;;3.72;;
44228;SDS011;29904;51.058;5.378;2022-07-29T04:50:39;5.80;;;3.97;;
44228;SDS011;29904;51.058;5.378;2022-07-29T04:53:06;6.13;;;3.97;;
44228;SDS011;29904;51.058;5.378;2022-07-29T04:55:32;6.03;;;4.23;;
44228;SDS011;29904;51.058;5.378;2022-07-29T04:57:58;5.60;;;4.32;;
44228;SDS011;29904;51.058;5.378;2022-07-29T05:00:24;7.33;;;4.93;;
44228;SDS011;29904;51.058;5.378;2022-07-29T05:02:50;5.60;;;4.10;;
44228;SDS011;29904;51.058;5.378;2022-07-29T05:05:15;5.22;;;3.33;;
44228;SDS011;29904;51.058;5.378;2022-07-29T05:07:41;4.38;;;3.33;;
44228;SDS011;29904;51.058;5.378;2022-07-29T05:10:09;5.95;;;4.00;;
44228;SDS011;29904;51.058;5.378;2022-07-29T05:12:36;5.80;;;3.80;;
44228;SDS011;29904;51.058;5.378;2022-07-29T05:15:02;7.50;;;4.30;;
44228;SDS011;29904;51.058;5.378;2022-07-29T05:17:28;6.50;;;4.00;;
44228;SDS011;29904;51.058;5.378;2022-07-29T05:19:54;7.90;;;4.77;;
44228;SDS011;29904;51.058;5.378;2022-07-29T05:22:20;5.70;;;4.40;;
44228;SDS011;29904;51.058;5.378;2022-07-29T05:24:45;6.15;;;3.95;;
44228;SDS011;29904;51.058;5.378;2022-07-29T05:27:11;5.60;;;4.38;;
44228;SDS011;29904;51.058;5.378;2022-07-29T05:29:37;6.22;;;4.85;;
44228;SDS011;29904;51.058;5.378;2022-07-29T05:32:03;7.05;;;5.10;;
44228;SDS011;29904;51.058;5.378;2022-07-29T05:34:30;7.13;;;4.90;;
44228;SDS011;29904;51.058;5.378;2022-07-29T05:36:56;6.68;;;4.70;;
44228;SDS011;29904;51.058;5.378;2022-07-29T05:39:22;7.15;;;4.28;;
44228;SDS011;29904;51.058;5.378;2022-07-29T05:41:48;6.25;;;4.00;;
44228;SDS011;29904;51.058;5.378;2022-07-29T05:44:14;6.30;;;4.17;;
44228;SDS011;29904;51.058;5.378;2022-07-29T05:46:42;5.82;;;3.97;;
44228;SDS011;29904;51.058;5.378;2022-07-29T05:49:10;6.25;;;4.05;;
44228;SDS011;29904;51.058;5.378;2022-07-29T05:51:36;5.57;;;3.95;;
44228;SDS011;29904;51.058;5.378;2022-07-29T05:54:02;6.10;;;4.20;;
44228;SDS011;29904;51.058;5.378;2022-07-29T05:56:30;4.93;;;3.63;;
44228;SDS011;29904;51.058;5.378;2022-07-29T05:58:56;5.17;;;4.07;;
44228;SDS011;29904;51.058;5.378;2022-07-29T06:01:22;7.50;;;4.40;;
44228;SDS011;29904;51.058;5.378;2022-07-29T06:03:47;8.48;;;4.75;;
44228;SDS011;29904;51.058;5.378;2022-07-29T06:06:13;6.22;;;4.80;;
44228;SDS011;29904;51.058;5.378;2022-07-29T06:08:39;7.65;;;5.72;;
44228;SDS011;29904;51.058;5.378;2022-07-29T06:11:05;7.50;;;5.40;;
44228;SDS011;29904;51.058;5.378;2022-07-29T06:13:35;8.20;;;5.80;;
44228;SDS011;29904;51.058;5.378;2022-07-29T06:16:01;6.68;;;5.03;;
44228;SDS011;29904;51.058;5.378;2022-07-29T06:18:27;8.57;;;5.70;;
44228;SDS011;29904;51.058;5.378;2022-07-29T06:20:55;8.55;;;5.20;;
44228;SDS011;29904;51.058;5.378;2022-07-29T06:23:20;6.45;;;4.90;;
44228;SDS011;29904;51.058;5.378;2022-07-29T06:25:46;7.45;;;5.43;;
44228;SDS011;29904;51.058;5.378;2022-07-29T06:28:14;6.55;;;5.00;;
44228;SDS011;29904;51.058;5.378;2022-07-29T06:30:40;8.80;;;5.68;;
44228;SDS011;29904;51.058;5.378;2022-07-29T06:33:06;7.97;;;5.43;;
44228;SDS011;29904;51.058;5.378;2022-07-29T06:35:34;7.40;;;5.50;;
44228;SDS011;29904;51.058;5.378;2022-07-29T06:38:03;7.87;;;5.13;;
44228;SDS011;29904;51.058;5.378;2022-07-29T06:40:29;8.53;;;5.47;;
44228;SDS011;29904;51.058;5.378;2022-07-29T06:43:13;6.77;;;5.37;;
44228;SDS011;29904;51.058;5.378;2022-07-29T06:45:41;7.60;;;5.00;;
44228;SDS011;29904;51.058;5.378;2022-07-29T06:48:08;6.43;;;4.43;;
44228;SDS011;29904;51.058;5.378;2022-07-29T06:50:34;7.32;;;5.13;;
44228;SDS011;29904;51.058;5.378;2022-07-29T06:53:02;7.07;;;4.82;;
44228;SDS011;29904;51.058;5.378;2022-07-29T06:55:28;7.25;;;4.65;;
44228;SDS011;29904;51.058;5.378;2022-07-29T06:57:54;6.65;;;4.50;;
44228;SDS011;29904;51.058;5.378;2022-07-29T07:00:20;6.10;;;4.78;;
44228;SDS011;29904;51.058;5.378;2022-07-29T07:02:45;6.53;;;4.40;;
44228;SDS011;29904;51.058;5.378;2022-07-29T07:05:11;6.33;;;4.03;;
44228;SDS011;29904;51.058;5.378;2022-07-29T07:07:37;5.43;;;4.03;;
44228;SDS011;29904;51.058;5.378;2022-07-29T07:10:05;11.70;;;5.10;;
44228;SDS011;29904;51.058;5.378;2022-07-29T07:12:31;6.65;;;4.68;;
44228;SDS011;29904;51.058;5.378;2022-07-29T07:14:56;6.90;;;4.00;;
44228;SDS011;29904;51.058;5.378;2022-07-29T07:17:24;5.95;;;4.70;;
44228;SDS011;29904;51.058;5.378;2022-07-29T07:19:50;5.53;;;3.92;;
44228;SDS011;29904;51.058;5.378;2022-07-29T07:22:16;5.17;;;4.03;;
44228;SDS011;29904;51.058;5.378;2022-07-29T07:24:43;7.40;;;4.85;;
44228;SDS011;29904;51.058;5.378;2022-07-29T07:27:09;7.63;;;4.50;;
44228;SDS011;29904;51.058;5.378;2022-07-29T07:29:35;7.03;;;4.70;;
44228;SDS011;29904;51.058;5.378;2022-07-29T07:32:01;7.67;;;4.70;;
44228;SDS011;29904;51.058;5.378;2022-07-29T07:34:27;5.97;;;4.67;;
44228;SDS011;29904;51.058;5.378;2022-07-29T07:36:53;6.55;;;4.45;;
44228;SDS011;29904;51.058;5.378;2022-07-29T07:39:18;5.30;;;3.93;;
44228;SDS011;29904;51.058;5.378;2022-07-29T07:41:44;6.35;;;4.10;;
44228;SDS011;29904;51.058;5.378;2022-07-29T07:44:10;6.50;;;4.00;;
44228;SDS011;29904;51.058;5.378;2022-07-29T07:46:36;6.27;;;4.40;;
44228;SDS011;29904;51.058;5.378;2022-07-29T07:49:01;6.93;;;4.15;;
44228;SDS011;29904;51.058;5.378;2022-07-29T07:51:29;5.45;;;3.95;;
44228;SDS011;29904;51.058;5.378;2022-07-29T07:53:55;4.55;;;3.38;;
44228;SDS011;29904;51.058;5.378;2022-07-29T07:56:20;6.50;;;4.07;;
44228;SDS011;29904;51.058;5.378;2022-07-29T07:58:48;6.88;;;4.80;;
44228;SDS011;29904;51.058;5.378;2022-07-29T08:01:16;5.93;;;3.80;;
44228;SDS011;29904;51.058;5.378;2022-07-29T08:03:43;7.07;;;4.50;;
44228;SDS011;29904;51.058;5.378;2022-07-29T08:06:09;7.13;;;4.60;;
44228;SDS011;29904;51.058;5.378;2022-07-29T08:08:35;4.93;;;4.20;;
44228;SDS011;29904;51.058;5.378;2022-07-29T08:11:01;5.80;;;3.93;;
44228;SDS011;29904;51.058;5.378;2022-07-29T08:13:28;5.75;;;3.47;;
44228;SDS011;29904;51.058;5.378;2022-07-29T08:15:55;6.60;;;3.50;;
44228;SDS011;29904;51.058;5.378;2022-07-29T08:18:23;4.75;;;3.50;;
44228;SDS011;29904;51.058;5.378;2022-07-29T08:20:50;5.05;;;3.65;;
44228;SDS011;29904;51.058;5.378;2022-07-29T08:23:16;4.97;;;3.40;;
44228;SDS011;29904;51.058;5.378;2022-07-29T08:25:43;5.60;;;3.47;;
44228;SDS011;29904;51.058;5.378;2022-07-29T08:28:09;5.30;;;3.23;;
44228;SDS011;29904;51.058;5.378;2022-07-29T08:30:35;4.78;;;3.22;;
44228;SDS011;29904;51.058;5.378;2022-07-29T08:33:03;7.18;;;3.20;;
44228;SDS011;29904;51.058;5.378;2022-07-29T08:35:29;4.85;;;3.22;;
44228;SDS011;29904;51.058;5.378;2022-07-29T08:37:54;7.03;;;3.83;;
44228;SDS011;29904;51.058;5.378;2022-07-29T08:40:21;5.85;;;3.65;;
44228;SDS011;29904;51.058;5.378;2022-07-29T08:42:48;5.32;;;3.70;;
44228;SDS011;29904;51.058;5.378;2022-07-29T08:45:14;4.65;;;3.30;;
44228;SDS011;29904;51.058;5.378;2022-07-29T08:47:41;5.03;;;2.90;;
44228;SDS011;29904;51.058;5.378;2022-07-29T08:50:10;7.60;;;3.40;;
44228;SDS011;29904;51.058;5.378;2022-07-29T08:52:37;3.80;;;2.70;;
44228;SDS011;29904;51.058;5.378;2022-07-29T08:55:04;4.28;;;3.20;;
44228;SDS011;29904;51.058;5.378;2022-07-29T08:57:33;6.95;;;3.33;;
44228;SDS011;29904;51.058;5.378;2022-07-29T09:00:05;6.45;;;3.15;;
44228;SDS011;29904;51.058;5.378;2022-07-29T09:02:35;5.03;;;3.05;;
44228;SDS011;29904;51.058;5.378;2022-07-29T09:05:04;5.15;;;3.70;;
44228;SDS011;29904;51.058;5.378;2022-07-29T09:07:32;7.03;;;3.90;;
44228;SDS011;29904;51.058;5.378;2022-07-29T09:09:58;4.55;;;3.40;;
44228;SDS011;29904;51.058;5.378;2022-07-29T09:12:25;4.72;;;3.30;;
44228;SDS011;29904;51.058;5.378;2022-07-29T09:14:54;5.05;;;3.83;;
44228;SDS011;29904;51.058;5.378;2022-07-29T09:17:38;4.17;;;2.87;;
44228;SDS011;29904;51.058;5.378;2022-07-29T09:20:13;4.00;;;3.30;;
44228;SDS011;29904;51.058;5.378;2022-07-29T09:22:41;6.05;;;3.17;;
44228;SDS011;29904;51.058;5.378;2022-07-29T09:25:07;7.70;;;3.30;;
44228;SDS011;29904;51.058;5.378;2022-07-29T09:27:33;3.70;;;2.83;;
44228;SDS011;29904;51.058;5.378;2022-07-29T09:30:06;4.70;;;2.50;;
44228;SDS011;29904;51.058;5.378;2022-07-29T09:32:56;4.32;;;2.38;;
44228;SDS011;29904;51.058;5.378;2022-07-29T09:35:26;4.60;;;3.53;;
44228;SDS011;29904;51.058;5.378;2022-07-29T09:37:54;5.63;;;3.20;;
44228;SDS011;29904;51.058;5.378;2022-07-29T09:40:25;4.13;;;2.63;;
44228;SDS011;29904;51.058;5.378;2022-07-29T09:42:52;5.00;;;2.95;;
44228;SDS011;29904;51.058;5.378;2022-07-29T09:45:31;6.13;;;2.75;;
44228;SDS011;29904;51.058;5.378;2022-07-29T09:47:59;5.63;;;2.70;;
44228;SDS011;29904;51.058;5.378;2022-07-29T09:50:41;3.40;;;2.00;;
44228;SDS011;29904;51.058;5.378;2022-07-29T09:53:10;3.85;;;2.30;;
44228;SDS011;29904;51.058;5.378;2022-07-29T09:55:49;4.22;;;2.72;;
44228;SDS011;29904;51.058;5.378;2022-07-29T09:58:21;4.90;;;2.53;;
44228;SDS011;29904;51.058;5.378;2022-07-29T10:00:48;4.15;;;2.42;;
44228;SDS011;29904;51.058;5.378;2022-07-29T10:03:15;4.77;;;2.60;;
44228;SDS011;29904;51.058;5.378;2022-07-29T10:05:42;3.92;;;2.13;;
44228;SDS011;29904;51.058;5.378;2022-07-29T10:08:10;3.50;;;2.17;;
44228;SDS011;29904;51.058;5.378;2022-07-29T10:10:41;4.37;;;2.27;;
44228;SDS011;29904;51.058;5.378;2022-07-29T10:13:08;3.90;;;2.22;;
44228;SDS011;29904;51.058;5.378;2022-07-29T10:15:39;4.15;;;2.20;;
44228;SDS011;29904;51.058;5.378;2022-07-29T10:18:09;2.75;;;2.40;;
44228;SDS011;29904;51.058;5.378;2022-07-29T10:20:36;4.43;;;2.28;;
44228;SDS011;29904;51.058;5.378;2022-07-29T10:23:03;3.53;;;2.50;;
44228;SDS011;29904;51.058;5.378;2022-07-29T10:25:29;5.07;;;2.03;;
44228;SDS011;29904;51.058;5.378;2022-07-29T10:27:55;4.43;;;1.88;;
44228;SDS011;29904;51.058;5.378;2022-07-29T10:30:23;3.80;;;1.40;;
44228;SDS011;29904;51.058;5.378;2022-07-29T10:44:24;3.92;;;1.60;;
44228;SDS011;29904;51.058;5.378;2022-07-29T10:46:52;2.88;;;1.45;;
44228;SDS011;29904;51.058;5.378;2022-07-29T10:51:59;1.33;;;1.00;;
44228;SDS011;29904;51.058;5.378;2022-07-29T10:57:14;4.05;;;1.52;;
44228;SDS011;29904;51.058;5.378;2022-07-29T11:05:01;4.13;;;1.43;;
44228;SDS011;29904;51.058;5.378;2022-07-29T11:07:34;2.40;;;1.30;;
44228;SDS011;29904;51.058;5.378;2022-07-29T11:15:15;4.97;;;1.67;;
44228;SDS011;29904;51.058;5.378;2022-07-29T11:23:17;2.63;;;1.50;;
44228;SDS011;29904;51.058;5.378;2022-07-29T11:28:42;2.00;;;1.20;;
44228;SDS011;29904;51.058;5.378;2022-07-29T11:31:19;3.40;;;1.40;;
44228;SDS011;29904;51.058;5.378;2022-07-29T11:39:38;2.63;;;1.60;;
44228;SDS011;29904;51.058;5.378;2022-07-29T11:44:55;3.70;;;1.75;;
44228;SDS011;29904;51.058;5.378;2022-07-29T11:47:30;4.67;;;1.93;;
44228;SDS011;29904;51.058;5.378;2022-07-29T11:49:59;2.07;;;1.20;;
44228;SDS011;29904;51.058;5.378;2022-07-29T11:52:32;2.58;;;1.65;;
44228;SDS011;29904;51.058;5.378;2022-07-29T11:55:02;3.37;;;1.10;;
44228;SDS011;29904;51.058;5.378;2022-07-29T11:57:29;2.75;;;1.10;;
44228;SDS011;29904;51.058;5.378;2022-07-29T11:59:55;2.47;;;1.35;;
44228;SDS011;29904;51.058;5.378;2022-07-29T12:02:23;3.38;;;1.92;;
44228;SDS011;29904;51.058;5.378;2022-07-29T12:04:50;3.08;;;1.30;;
44228;SDS011;29904;51.058;5.378;2022-07-29T12:07:18;2.28;;;1.40;;
44228;SDS011;29904;51.058;5.378;2022-07-29T12:09:54;2.22;;;1.10;;
44228;SDS011;29904;51.058;5.378;2022-07-29T12:12:20;3.30;;;1.55;;
44228;SDS011;29904;51.058;5.378;2022-07-29T12:14:46;2.93;;;1.47;;
44228;SDS011;29904;51.058;5.378;2022-07-29T12:17:28;2.83;;;1.38;;
44228;SDS011;29904;51.058;5.378;2022-07-29T12:19:57;4.33;;;1.50;;
44228;SDS011;29904;51.058;5.378;2022-07-29T12:22:28;4.10;;;1.35;;
44228;SDS011;29904;51.058;5.378;2022-07-29T12:25:00;2.90;;;1.40;;
44228;SDS011;29904;51.058;5.378;2022-07-29T12:27:28;2.63;;;1.25;;
44228;SDS011;29904;51.058;5.378;2022-07-29T12:29:58;4.07;;;1.50;;
44228;SDS011;29904;51.058;5.378;2022-07-29T12:32:35;3.00;;;1.20;;
44228;SDS011;29904;51.058;5.378;2022-07-29T12:35:04;2.35;;;1.00;;
44228;SDS011;29904;51.058;5.378;2022-07-29T12:37:33;2.53;;;1.20;;
44228;SDS011;29904;51.058;5.378;2022-07-29T12:39:59;2.78;;;1.10;;
44228;SDS011;29904;51.058;5.378;2022-07-29T12:42:26;5.80;;;1.33;;
44228;SDS011;29904;51.058;5.378;2022-07-29T12:44:52;2.00;;;1.20;;
44228;SDS011;29904;51.058;5.378;2022-07-29T12:47:19;1.73;;;1.00;;
44228;SDS011;29904;51.058;5.378;2022-07-29T12:49:45;2.08;;;1.10;;
44228;SDS011;29904;51.058;5.378;2022-07-29T12:52:31;2.55;;;1.27;;
44228;SDS011;29904;51.058;5.378;2022-07-29T12:54:59;1.93;;;1.20;;
44228;SDS011;29904;51.058;5.378;2022-07-29T12:57:25;2.97;;;1.30;;
44228;SDS011;29904;51.058;5.378;2022-07-29T13:00:25;3.67;;;1.40;;
44228;SDS011;29904;51.058;5.378;2022-07-29T13:02:56;2.25;;;1.15;;
44228;SDS011;29904;51.058;5.378;2022-07-29T13:05:23;2.67;;;1.25;;
44228;SDS011;29904;51.058;5.378;2022-07-29T13:08:12;1.98;;;1.33;;
44228;SDS011;29904;51.058;5.378;2022-07-29T13:10:39;3.38;;;1.10;;
44228;SDS011;29904;51.058;5.378;2022-07-29T13:13:08;3.85;;;1.50;;
44228;SDS011;29904;51.058;5.378;2022-07-29T13:15:45;3.22;;;1.38;;
44228;SDS011;29904;51.058;5.378;2022-07-29T13:18:32;2.08;;;1.00;;
44228;SDS011;29904;51.058;5.378;2022-07-29T13:21:10;3.00;;;1.40;;
44228;SDS011;29904;51.058;5.378;2022-07-29T13:23:38;3.28;;;1.10;;
44228;SDS011;29904;51.058;5.378;2022-07-29T13:26:10;2.97;;;1.20;;
44228;SDS011;29904;51.058;5.378;2022-07-29T13:28:36;2.80;;;1.13;;
44228;SDS011;29904;51.058;5.378;2022-07-29T13:31:02;4.45;;;1.13;;
44228;SDS011;29904;51.058;5.378;2022-07-29T13:33:29;4.05;;;1.35;;
44228;SDS011;29904;51.058;5.378;2022-07-29T13:35:55;2.53;;;1.20;;
44228;SDS011;29904;51.058;5.378;2022-07-29T13:38:23;1.95;;;1.13;;
44228;SDS011;29904;51.058;5.378;2022-07-29T13:40:48;2.42;;;0.93;;
44228;SDS011;29904;51.058;5.378;2022-07-29T13:43:14;2.40;;;1.00;;
44228;SDS011;29904;51.058;5.378;2022-07-29T13:45:40;2.47;;;1.20;;
44228;SDS011;29904;51.058;5.378;2022-07-29T13:48:06;5.75;;;1.50;;
44228;SDS011;29904;51.058;5.378;2022-07-29T13:50:32;3.00;;;1.10;;
44228;SDS011;29904;51.058;5.378;2022-07-29T13:52:58;2.00;;;1.10;;
44228;SDS011;29904;51.058;5.378;2022-07-29T13:55:24;2.30;;;1.10;;
44228;SDS011;29904;51.058;5.378;2022-07-29T13:57:52;3.63;;;1.10;;
44228;SDS011;29904;51.058;5.378;2022-07-29T14:00:17;3.63;;;1.30;;
44228;SDS011;29904;51.058;5.378;2022-07-29T14:02:44;4.28;;;1.40;;
44228;SDS011;29904;51.058;5.378;2022-07-29T14:05:12;1.88;;;1.08;;
44228;SDS011;29904;51.058;5.378;2022-07-29T14:07:38;2.03;;;1.00;;
44228;SDS011;29904;51.058;5.378;2022-07-29T14:10:04;3.60;;;1.10;;
44228;SDS011;29904;51.058;5.378;2022-07-29T14:12:30;2.20;;;1.00;;
44228;SDS011;29904;51.058;5.378;2022-07-29T14:14:56;4.20;;;1.27;;
44228;SDS011;29904;51.058;5.378;2022-07-29T14:17:22;2.65;;;1.00;;
44228;SDS011;29904;51.058;5.378;2022-07-29T14:19:48;3.35;;;1.00;;
44228;SDS011;29904;51.058;5.378;2022-07-29T14:22:15;2.67;;;1.10;;
44228;SDS011;29904;51.058;5.378;2022-07-29T14:24:44;1.80;;;0.82;;
44228;SDS011;29904;51.058;5.378;2022-07-29T14:27:09;2.30;;;1.10;;
44228;SDS011;29904;51.058;5.378;2022-07-29T14:29:36;2.60;;;1.13;;
44228;SDS011;29904;51.058;5.378;2022-07-29T14:32:05;2.35;;;1.25;;
44228;SDS011;29904;51.058;5.378;2022-07-29T14:34:32;2.42;;;0.90;;
44228;SDS011;29904;51.058;5.378;2022-07-29T14:36:58;3.45;;;1.20;;
44228;SDS011;29904;51.058;5.378;2022-07-29T14:39:26;2.67;;;1.20;;
44228;SDS011;29904;51.058;5.378;2022-07-29T14:41:51;3.97;;;1.20;;
44228;SDS011;29904;51.058;5.378;2022-07-29T14:44:18;3.63;;;1.15;;
44228;SDS011;29904;51.058;5.378;2022-07-29T14:46:43;3.92;;;1.35;;
44228;SDS011;29904;51.058;5.378;2022-07-29T14:49:09;3.40;;;1.10;;
44228;SDS011;29904;51.058;5.378;2022-07-29T14:51:35;3.70;;;1.10;;
44228;SDS011;29904;51.058;5.378;2022-07-29T14:54:01;2.80;;;1.30;;
44228;SDS011;29904;51.058;5.378;2022-07-29T14:56:26;5.10;;;1.20;;
44228;SDS011;29904;51.058;5.378;2022-07-29T14:58:55;2.78;;;1.00;;
44228;SDS011;29904;51.058;5.378;2022-07-29T15:01:22;4.07;;;1.23;;
44228;SDS011;29904;51.058;5.378;2022-07-29T15:03:48;1.85;;;1.02;;
44228;SDS011;29904;51.058;5.378;2022-07-29T15:06:15;5.93;;;1.30;;
44228;SDS011;29904;51.058;5.378;2022-07-29T15:08:41;3.50;;;1.10;;
44228;SDS011;29904;51.058;5.378;2022-07-29T15:11:06;2.97;;;1.10;;
44228;SDS011;29904;51.058;5.378;2022-07-29T15:13:34;3.53;;;1.20;;
44228;SDS011;29904;51.058;5.378;2022-07-29T15:16:00;3.60;;;1.00;;
44228;SDS011;29904;51.058;5.378;2022-07-29T15:18:26;3.97;;;1.90;;
44228;SDS011;29904;51.058;5.378;2022-07-29T15:20:53;4.13;;;1.80;;
44228;SDS011;29904;51.058;5.378;2022-07-29T15:23:19;3.55;;;1.10;;
44228;SDS011;29904;51.058;5.378;2022-07-29T15:25:45;2.50;;;1.20;;
44228;SDS011;29904;51.058;5.378;2022-07-29T15:28:11;3.83;;;1.10;;
44228;SDS011;29904;51.058;5.378;2022-07-29T15:30:36;3.90;;;1.05;;
44228;SDS011;29904;51.058;5.378;2022-07-29T15:33:06;3.47;;;1.13;;
44228;SDS011;29904;51.058;5.378;2022-07-29T15:35:33;4.00;;;1.27;;
44228;SDS011;29904;51.058;5.378;2022-07-29T15:37:59;3.47;;;1.40;;
44228;SDS011;29904;51.058;5.378;2022-07-29T15:40:26;2.53;;;1.17;;
44228;SDS011;29904;51.058;5.378;2022-07-29T15:42:52;4.47;;;1.37;;
44228;SDS011;29904;51.058;5.378;2022-07-29T15:45:17;2.47;;;1.03;;